sensor_id;sensor_type;location;lat;lon;timestamp;temperature;humidity
9919;DHT22;4998;51.024;13.828;2023-08-07T00:01:17;19.20;98.70
9919;DHT22;4998;51.024;13.828;2023-08-07T00:03:44;19.20;98.80
9919;DHT22;4998;51.024;13.828;2023-08-07T00:06:12;19.20;98.80
9919;DHT22;4998;51.024;13.828;2023-08-07T00:08:39;19.20;99.00
9919;DHT22;4998;51.024;13.828;2023-08-07T00:11:06;19.20;99.00
9919;DHT22;4998;51.024;13.828;2023-08-07T00:13:34;19.10;99.10
9919;DHT22;4998;51.024;13.828;2023-08-07T00:16:01;19.10;99.20
9919;DHT22;4998;51.024;13.828;2023-08-07T00:18:28;19.10;99.30
9919;DHT22;4998;51.024;13.828;2023-08-07T00:20:55;19.10;99.30
9919;DHT22;4998;51.024;13.828;2023-08-07T00:23:24;19.10;99.30
9919;DHT22;4998;51.024;13.828;2023-08-07T00:25:51;19.10;99.30
9919;DHT22;4998;51.024;13.828;2023-08-07T00:28:18;19.10;99.30
9919;DHT22;4998;51.024;13.828;2023-08-07T00:30:45;19.10;99.40
9919;DHT22;4998;51.024;13.828;2023-08-07T00:33:12;19.10;99.30
9919;DHT22;4998;51.024;13.828;2023-08-07T00:35:39;19.20;99.40
9919;DHT22;4998;51.024;13.828;2023-08-07T00:38:06;19.20;99.30
9919;DHT22;4998;51.024;13.828;2023-08-07T00:40:38;19.10;99.30
9919;DHT22;4998;51.024;13.828;2023-08-07T00:43:05;19.10;99.40
9919;DHT22;4998;51.024;13.828;2023-08-07T00:45:35;19.10;99.40
9919;DHT22;4998;51.024;13.828;2023-08-07T00:48:03;19.10;99.40
9919;DHT22;4998;51.024;13.828;2023-08-07T00:50:31;19.10;99.40
9919;DHT22;4998;51.024;13.828;2023-08-07T00:52:58;19.10;99.30
9919;DHT22;4998;51.024;13.828;2023-08-07T00:55:26;19.10;99.30
9919;DHT22;4998;51.024;13.828;2023-08-07T00:57:54;19.10;99.30
9919;DHT22;4998;51.024;13.828;2023-08-07T01:00:22;19.10;99.30
9919;DHT22;4998;51.024;13.828;2023-08-07T01:02:49;19.10;99.30
9919;DHT22;4998;51.024;13.828;2023-08-07T01:05:17;19.10;99.30
9919;DHT22;4998;51.024;13.828;2023-08-07T01:07:47;19.10;99.40
9919;DHT22;4998;51.024;13.828;2023-08-07T01:10:17;19.10;99.50
9919;DHT22;4998;51.024;13.828;2023-08-07T01:12:51;19.10;99.50
9919;DHT22;4998;51.024;13.828;2023-08-07T01:15:24;19.10;99.50
9919;DHT22;4998;51.024;13.828;2023-08-07T01:17:52;19.10;99.50
9919;DHT22;4998;51.024;13.828;2023-08-07T01:20:20;19.10;99.50
9919;DHT22;4998;51.024;13.828;2023-08-07T01:22:49;19.10;99.50
9919;DHT22;4998;51.024;13.828;2023-08-07T01:25:16;19.10;99.60
9919;DHT22;4998;51.024;13.828;2023-08-07T01:27:49;19.10;99.60
9919;DHT22;4998;51.024;13.828;2023-08-07T01:30:20;19.10;99.70
9919;DHT22;4998;51.024;13.828;2023-08-07T01:32:58;19.10;99.80
9919;DHT22;4998;51.024;13.828;2023-08-07T01:35:29;19.10;99.80
9919;DHT22;4998;51.024;13.828;2023-08-07T01:37:59;19.10;99.70
9919;DHT22;4998;51.024;13.828;2023-08-07T01:40:27;19.10;99.80
9919;DHT22;4998;51.024;13.828;2023-08-07T01:42:54;19.10;99.70
9919;DHT22;4998;51.024;13.828;2023-08-07T01:45:23;19.10;99.60
9919;DHT22;4998;51.024;13.828;2023-08-07T01:47:50;19.10;99.70
9919;DHT22;4998;51.024;13.828;2023-08-07T01:50:18;19.10;99.70
9919;DHT22;4998;51.024;13.828;2023-08-07T01:52:45;19.10;99.70
9919;DHT22;4998;51.024;13.828;2023-08-07T01:55:14;19.10;99.70
9919;DHT22;4998;51.024;13.828;2023-08-07T01:57:42;19.10;99.70
9919;DHT22;4998;51.024;13.828;2023-08-07T02:00:10;19.00;99.80
9919;DHT22;4998;51.024;13.828;2023-08-07T02:02:37;19.00;99.90
9919;DHT22;4998;51.024;13.828;2023-08-07T02:05:05;19.00;99.90
9919;DHT22;4998;51.024;13.828;2023-08-07T02:07:32;19.00;99.90
9919;DHT22;4998;51.024;13.828;2023-08-07T02:09:59;19.00;99.90
9919;DHT22;4998;51.024;13.828;2023-08-07T02:12:27;19.00;99.90
9919;DHT22;4998;51.024;13.828;2023-08-07T02:14:57;19.00;99.90
9919;DHT22;4998;51.024;13.828;2023-08-07T02:17:25;19.00;99.90
9919;DHT22;4998;51.024;13.828;2023-08-07T02:19:52;19.00;99.90
9919;DHT22;4998;51.024;13.828;2023-08-07T02:22:19;19.00;99.90
9919;DHT22;4998;51.024;13.828;2023-08-07T02:24:46;19.00;99.90
9919;DHT22;4998;51.024;13.828;2023-08-07T02:27:13;19.00;99.90
9919;DHT22;4998;51.024;13.828;2023-08-07T02:29:42;19.00;99.90
9919;DHT22;4998;51.024;13.828;2023-08-07T02:32:09;18.90;99.90
9919;DHT22;4998;51.024;13.828;2023-08-07T02:34:36;18.90;99.90
9919;DHT22;4998;51.024;13.828;2023-08-07T02:37:03;19.00;99.90
9919;DHT22;4998;51.024;13.828;2023-08-07T02:39:30;18.90;99.90
9919;DHT22;4998;51.024;13.828;2023-08-07T02:41:57;19.00;99.90
9919;DHT22;4998;51.024;13.828;2023-08-07T02:44:24;18.90;99.90
9919;DHT22;4998;51.024;13.828;2023-08-07T02:46:52;19.00;99.90
9919;DHT22;4998;51.024;13.828;2023-08-07T02:49:19;19.00;99.90
9919;DHT22;4998;51.024;13.828;2023-08-07T02:51:46;19.00;99.90
9919;DHT22;4998;51.024;13.828;2023-08-07T02:54:13;19.00;99.90
9919;DHT22;4998;51.024;13.828;2023-08-07T02:56:41;19.00;99.90
9919;DHT22;4998;51.024;13.828;2023-08-07T02:59:08;19.00;99.90
9919;DHT22;4998;51.024;13.828;2023-08-07T03:01:35;19.00;99.90
9919;DHT22;4998;51.024;13.828;2023-08-07T03:04:03;19.00;99.90
9919;DHT22;4998;51.024;13.828;2023-08-07T03:06:30;19.00;99.90
9919;DHT22;4998;51.024;13.828;2023-08-07T03:08:57;19.00;99.90
9919;DHT22;4998;51.024;13.828;2023-08-07T03:11:24;19.00;99.90
9919;DHT22;4998;51.024;13.828;2023-08-07T03:13:51;19.00;99.90
9919;DHT22;4998;51.024;13.828;2023-08-07T03:16:18;19.00;99.90
9919;DHT22;4998;51.024;13.828;2023-08-07T03:18:45;19.00;99.90
9919;DHT22;4998;51.024;13.828;2023-08-07T03:21:14;19.00;99.90
9919;DHT22;4998;51.024;13.828;2023-08-07T03:23:41;19.00;99.90
9919;DHT22;4998;51.024;13.828;2023-08-07T03:26:09;19.00;99.90
9919;DHT22;4998;51.024;13.828;2023-08-07T03:28:37;19.00;99.90
9919;DHT22;4998;51.024;13.828;2023-08-07T03:31:05;19.00;99.90
9919;DHT22;4998;51.024;13.828;2023-08-07T03:33:32;18.90;99.90
9919;DHT22;4998;51.024;13.828;2023-08-07T03:35:59;18.80;99.90
9919;DHT22;4998;51.024;13.828;2023-08-07T03:38:27;18.80;99.80
9919;DHT22;4998;51.024;13.828;2023-08-07T03:40:54;18.70;99.80
9919;DHT22;4998;51.024;13.828;2023-08-07T03:43:22;18.60;99.90
9919;DHT22;4998;51.024;13.828;2023-08-07T03:45:54;18.50;99.80
9919;DHT22;4998;51.024;13.828;2023-08-07T03:48:21;18.40;99.90
9919;DHT22;4998;51.024;13.828;2023-08-07T03:50:48;18.40;99.90
9919;DHT22;4998;51.024;13.828;2023-08-07T03:53:15;18.40;99.90
9919;DHT22;4998;51.024;13.828;2023-08-07T03:55:49;18.30;99.90
9919;DHT22;4998;51.024;13.828;2023-08-07T03:58:16;18.30;99.90
9919;DHT22;4998;51.024;13.828;2023-08-07T04:00:43;18.30;99.90
9919;DHT22;4998;51.024;13.828;2023-08-07T04:03:10;18.30;99.90
9919;DHT22;4998;51.024;13.828;2023-08-07T04:05:37;18.30;99.90
9919;DHT22;4998;51.024;13.828;2023-08-07T04:08:04;18.20;99.90
9919;DHT22;4998;51.024;13.828;2023-08-07T04:10:31;18.20;99.90
9919;DHT22;4998;51.024;13.828;2023-08-07T04:13:00;18.20;99.90
9919;DHT22;4998;51.024;13.828;2023-08-07T04:15:26;18.20;99.90
9919;DHT22;4998;51.024;13.828;2023-08-07T04:17:53;18.20;99.90
9919;DHT22;4998;51.024;13.828;2023-08-07T04:20:20;18.20;99.90
9919;DHT22;4998;51.024;13.828;2023-08-07T04:22:48;18.20;99.90
9919;DHT22;4998;51.024;13.828;2023-08-07T04:25:15;18.20;99.90
9919;DHT22;4998;51.024;13.828;2023-08-07T04:27:42;18.20;99.90
9919;DHT22;4998;51.024;13.828;2023-08-07T04:30:11;18.20;99.90
9919;DHT22;4998;51.024;13.828;2023-08-07T04:32:38;18.20;99.90
9919;DHT22;4998;51.024;13.828;2023-08-07T04:35:07;18.20;99.90
9919;DHT22;4998;51.024;13.828;2023-08-07T04:37:34;18.20;99.90
9919;DHT22;4998;51.024;13.828;2023-08-07T04:40:02;18.20;99.90
9919;DHT22;4998;51.024;13.828;2023-08-07T04:42:30;18.20;99.90
9919;DHT22;4998;51.024;13.828;2023-08-07T04:44:58;18.20;99.90
9919;DHT22;4998;51.024;13.828;2023-08-07T04:47:28;18.20;99.90
9919;DHT22;4998;51.024;13.828;2023-08-07T04:49:55;18.30;99.90
9919;DHT22;4998;51.024;13.828;2023-08-07T04:52:22;18.30;99.90
9919;DHT22;4998;51.024;13.828;2023-08-07T04:54:49;18.30;99.90
9919;DHT22;4998;51.024;13.828;2023-08-07T04:57:16;18.30;99.90
9919;DHT22;4998;51.024;13.828;2023-08-07T04:59:43;18.30;99.90
9919;DHT22;4998;51.024;13.828;2023-08-07T05:02:10;18.30;99.90
9919;DHT22;4998;51.024;13.828;2023-08-07T05:04:38;18.40;99.90
9919;DHT22;4998;51.024;13.828;2023-08-07T05:07:05;18.40;99.90
9919;DHT22;4998;51.024;13.828;2023-08-07T05:09:32;18.40;99.90
9919;DHT22;4998;51.024;13.828;2023-08-07T05:11:59;18.40;99.90
9919;DHT22;4998;51.024;13.828;2023-08-07T05:14:26;18.50;99.90
9919;DHT22;4998;51.024;13.828;2023-08-07T05:16:53;18.50;99.90
9919;DHT22;4998;51.024;13.828;2023-08-07T05:19:20;18.60;99.90
9919;DHT22;4998;51.024;13.828;2023-08-07T05:21:48;18.60;99.90
9919;DHT22;4998;51.024;13.828;2023-08-07T05:24:16;18.60;99.90
9919;DHT22;4998;51.024;13.828;2023-08-07T05:26:43;18.70;99.90
9919;DHT22;4998;51.024;13.828;2023-08-07T05:29:10;18.70;99.90
9919;DHT22;4998;51.024;13.828;2023-08-07T05:31:37;18.70;99.90
9919;DHT22;4998;51.024;13.828;2023-08-07T05:34:04;18.80;99.90
9919;DHT22;4998;51.024;13.828;2023-08-07T05:36:32;18.80;99.90
9919;DHT22;4998;51.024;13.828;2023-08-07T05:39:00;18.90;99.90
9919;DHT22;4998;51.024;13.828;2023-08-07T05:41:27;18.90;99.90
9919;DHT22;4998;51.024;13.828;2023-08-07T05:43:54;19.00;99.90
9919;DHT22;4998;51.024;13.828;2023-08-07T05:46:21;19.00;99.90
9919;DHT22;4998;51.024;13.828;2023-08-07T05:48:48;19.00;99.90
9919;DHT22;4998;51.024;13.828;2023-08-07T05:51:15;19.00;99.90
9919;DHT22;4998;51.024;13.828;2023-08-07T05:53:42;19.00;99.90
9919;DHT22;4998;51.024;13.828;2023-08-07T05:56:10;19.10;99.90
9919;DHT22;4998;51.024;13.828;2023-08-07T05:58:37;19.10;99.90
9919;DHT22;4998;51.024;13.828;2023-08-07T06:01:05;19.10;99.90
9919;DHT22;4998;51.024;13.828;2023-08-07T06:03:32;19.10;99.90
9919;DHT22;4998;51.024;13.828;2023-08-07T06:05:59;19.10;99.90
9919;DHT22;4998;51.024;13.828;2023-08-07T06:08:26;19.10;99.90
9919;DHT22;4998;51.024;13.828;2023-08-07T06:10:54;19.10;99.90
9919;DHT22;4998;51.024;13.828;2023-08-07T06:13:23;19.10;99.90
9919;DHT22;4998;51.024;13.828;2023-08-07T06:15:50;19.10;99.90
9919;DHT22;4998;51.024;13.828;2023-08-07T06:18:17;19.10;99.90
9919;DHT22;4998;51.024;13.828;2023-08-07T06:20:44;19.10;99.90
9919;DHT22;4998;51.024;13.828;2023-08-07T06:23:12;19.10;99.90
9919;DHT22;4998;51.024;13.828;2023-08-07T06:25:39;19.10;99.90
9919;DHT22;4998;51.024;13.828;2023-08-07T06:28:06;19.10;99.90
9919;DHT22;4998;51.024;13.828;2023-08-07T06:30:34;19.10;99.90
9919;DHT22;4998;51.024;13.828;2023-08-07T06:33:01;19.20;99.90
9919;DHT22;4998;51.024;13.828;2023-08-07T06:35:28;19.20;99.90
9919;DHT22;4998;51.024;13.828;2023-08-07T06:37:55;19.20;99.90
9919;DHT22;4998;51.024;13.828;2023-08-07T06:40:22;19.30;99.90
9919;DHT22;4998;51.024;13.828;2023-08-07T06:42:49;19.30;99.90
9919;DHT22;4998;51.024;13.828;2023-08-07T06:45:16;19.40;99.90
9919;DHT22;4998;51.024;13.828;2023-08-07T06:47:44;19.40;99.90
9919;DHT22;4998;51.024;13.828;2023-08-07T06:50:12;19.40;99.90
9919;DHT22;4998;51.024;13.828;2023-08-07T06:52:39;19.50;99.90
9919;DHT22;4998;51.024;13.828;2023-08-07T06:55:07;19.50;99.90
9919;DHT22;4998;51.024;13.828;2023-08-07T06:57:34;19.50;99.90
9919;DHT22;4998;51.024;13.828;2023-08-07T07:00:01;19.60;99.90
9919;DHT22;4998;51.024;13.828;2023-08-07T07:02:28;19.60;99.90
9919;DHT22;4998;51.024;13.828;2023-08-07T07:04:57;19.70;99.80
9919;DHT22;4998;51.024;13.828;2023-08-07T07:07:24;19.70;99.60
9919;DHT22;4998;51.024;13.828;2023-08-07T07:09:51;19.70;99.40
9919;DHT22;4998;51.024;13.828;2023-08-07T07:12:18;19.80;99.30
9919;DHT22;4998;51.024;13.828;2023-08-07T07:14:45;19.90;99.50
9919;DHT22;4998;51.024;13.828;2023-08-07T07:17:12;19.90;99.60
9919;DHT22;4998;51.024;13.828;2023-08-07T07:19:39;20.00;99.50
9919;DHT22;4998;51.024;13.828;2023-08-07T07:22:07;20.10;99.20
9919;DHT22;4998;51.024;13.828;2023-08-07T07:24:34;20.10;99.00
9919;DHT22;4998;51.024;13.828;2023-08-07T07:27:02;20.20;99.10
9919;DHT22;4998;51.024;13.828;2023-08-07T07:29:29;20.20;98.70
9919;DHT22;4998;51.024;13.828;2023-08-07T07:31:56;20.30;98.80
9919;DHT22;4998;51.024;13.828;2023-08-07T07:34:23;20.30;98.40
9919;DHT22;4998;51.024;13.828;2023-08-07T07:36:50;20.40;98.30
9919;DHT22;4998;51.024;13.828;2023-08-07T07:39:20;20.40;98.20
9919;DHT22;4998;51.024;13.828;2023-08-07T07:41:48;20.40;97.80
9919;DHT22;4998;51.024;13.828;2023-08-07T07:44:15;20.40;97.70
9919;DHT22;4998;51.024;13.828;2023-08-07T07:46:42;20.50;97.80
9919;DHT22;4998;51.024;13.828;2023-08-07T07:49:09;20.50;97.80
9919;DHT22;4998;51.024;13.828;2023-08-07T07:51:36;20.50;97.70
9919;DHT22;4998;51.024;13.828;2023-08-07T07:54:03;20.60;97.40
9919;DHT22;4998;51.024;13.828;2023-08-07T07:56:31;20.60;97.30
9919;DHT22;4998;51.024;13.828;2023-08-07T07:58:58;20.60;96.90
9919;DHT22;4998;51.024;13.828;2023-08-07T08:01:25;20.70;96.90
9919;DHT22;4998;51.024;13.828;2023-08-07T08:03:53;20.70;96.90
9919;DHT22;4998;51.024;13.828;2023-08-07T08:06:20;20.70;96.60
9919;DHT22;4998;51.024;13.828;2023-08-07T08:08:47;20.70;96.40
9919;DHT22;4998;51.024;13.828;2023-08-07T08:11:14;20.70;96.20
9919;DHT22;4998;51.024;13.828;2023-08-07T08:13:43;20.80;96.00
9919;DHT22;4998;51.024;13.828;2023-08-07T08:16:10;20.80;96.00
9919;DHT22;4998;51.024;13.828;2023-08-07T08:18:37;20.80;96.30
9919;DHT22;4998;51.024;13.828;2023-08-07T08:21:04;20.80;96.20
9919;DHT22;4998;51.024;13.828;2023-08-07T08:23:32;20.90;96.60
9919;DHT22;4998;51.024;13.828;2023-08-07T08:25:59;20.90;96.00
9919;DHT22;4998;51.024;13.828;2023-08-07T08:28:26;21.00;95.80
9919;DHT22;4998;51.024;13.828;2023-08-07T08:30:55;21.10;95.70
9919;DHT22;4998;51.024;13.828;2023-08-07T08:33:23;21.10;95.30
9919;DHT22;4998;51.024;13.828;2023-08-07T08:35:50;21.10;94.80
9919;DHT22;4998;51.024;13.828;2023-08-07T08:38:17;21.20;94.70
9919;DHT22;4998;51.024;13.828;2023-08-07T08:40:45;21.20;94.40
9919;DHT22;4998;51.024;13.828;2023-08-07T08:43:13;21.20;94.40
9919;DHT22;4998;51.024;13.828;2023-08-07T08:45:41;21.20;93.90
9919;DHT22;4998;51.024;13.828;2023-08-07T08:48:12;21.20;93.70
9919;DHT22;4998;51.024;13.828;2023-08-07T08:50:42;21.20;93.50
9919;DHT22;4998;51.024;13.828;2023-08-07T08:53:10;21.20;93.50
9919;DHT22;4998;51.024;13.828;2023-08-07T08:55:38;21.20;93.40
9919;DHT22;4998;51.024;13.828;2023-08-07T08:58:08;21.20;93.40
9919;DHT22;4998;51.024;13.828;2023-08-07T09:00:36;21.20;93.50
9919;DHT22;4998;51.024;13.828;2023-08-07T09:03:03;21.30;93.70
9919;DHT22;4998;51.024;13.828;2023-08-07T09:05:32;21.30;93.80
9919;DHT22;4998;51.024;13.828;2023-08-07T09:08:00;21.30;93.80
9919;DHT22;4998;51.024;13.828;2023-08-07T09:10:28;21.40;93.80
9919;DHT22;4998;51.024;13.828;2023-08-07T09:13:00;21.40;93.80
9919;DHT22;4998;51.024;13.828;2023-08-07T09:15:30;21.50;93.50
9919;DHT22;4998;51.024;13.828;2023-08-07T09:17:58;21.60;93.10
9919;DHT22;4998;51.024;13.828;2023-08-07T09:20:25;21.60;92.60
9919;DHT22;4998;51.024;13.828;2023-08-07T09:22:53;21.60;92.60
9919;DHT22;4998;51.024;13.828;2023-08-07T09:25:30;21.60;92.60
9919;DHT22;4998;51.024;13.828;2023-08-07T09:28:01;21.60;92.30
9919;DHT22;4998;51.024;13.828;2023-08-07T09:30:30;21.60;92.40
9919;DHT22;4998;51.024;13.828;2023-08-07T09:32:57;21.60;92.80
9919;DHT22;4998;51.024;13.828;2023-08-07T09:35:24;21.70;92.60
9919;DHT22;4998;51.024;13.828;2023-08-07T09:37:53;21.70;92.40
9919;DHT22;4998;51.024;13.828;2023-08-07T09:40:20;21.80;92.20
9919;DHT22;4998;51.024;13.828;2023-08-07T09:42:50;21.80;92.20
9919;DHT22;4998;51.024;13.828;2023-08-07T09:45:20;21.90;91.90
9919;DHT22;4998;51.024;13.828;2023-08-07T09:47:47;21.90;91.30
9919;DHT22;4998;51.024;13.828;2023-08-07T09:50:23;21.90;91.20
9919;DHT22;4998;51.024;13.828;2023-08-07T09:52:50;21.90;91.00
9919;DHT22;4998;51.024;13.828;2023-08-07T09:55:18;21.90;90.70
9919;DHT22;4998;51.024;13.828;2023-08-07T09:57:46;21.90;90.40
9919;DHT22;4998;51.024;13.828;2023-08-07T10:00:13;22.00;90.20
9919;DHT22;4998;51.024;13.828;2023-08-07T10:02:41;22.00;90.30
9919;DHT22;4998;51.024;13.828;2023-08-07T10:05:09;22.00;90.40
9919;DHT22;4998;51.024;13.828;2023-08-07T10:07:37;22.10;90.30
9919;DHT22;4998;51.024;13.828;2023-08-07T10:10:06;22.10;90.20
9919;DHT22;4998;51.024;13.828;2023-08-07T10:12:34;22.10;90.20
9919;DHT22;4998;51.024;13.828;2023-08-07T10:15:03;22.10;89.40
9919;DHT22;4998;51.024;13.828;2023-08-07T10:17:30;22.20;89.90
9919;DHT22;4998;51.024;13.828;2023-08-07T10:19:58;22.20;89.80
9919;DHT22;4998;51.024;13.828;2023-08-07T10:22:26;22.20;90.00
9919;DHT22;4998;51.024;13.828;2023-08-07T10:24:54;22.20;89.80
9919;DHT22;4998;51.024;13.828;2023-08-07T10:27:25;22.20;89.50
9919;DHT22;4998;51.024;13.828;2023-08-07T10:29:56;22.20;88.80
9919;DHT22;4998;51.024;13.828;2023-08-07T10:32:25;22.30;89.00
9919;DHT22;4998;51.024;13.828;2023-08-07T10:34:53;22.30;88.60
9919;DHT22;4998;51.024;13.828;2023-08-07T10:37:39;22.30;88.90
9919;DHT22;4998;51.024;13.828;2023-08-07T10:40:08;22.30;88.60
9919;DHT22;4998;51.024;13.828;2023-08-07T10:42:55;22.30;88.70
9919;DHT22;4998;51.024;13.828;2023-08-07T10:45:25;22.40;89.20
9919;DHT22;4998;51.024;13.828;2023-08-07T10:48:04;22.20;89.70
9919;DHT22;4998;51.024;13.828;2023-08-07T10:50:32;22.10;89.90
9919;DHT22;4998;51.024;13.828;2023-08-07T10:53:01;22.00;90.10
9919;DHT22;4998;51.024;13.828;2023-08-07T10:55:31;21.80;90.40
9919;DHT22;4998;51.024;13.828;2023-08-07T10:58:21;21.70;90.70
9919;DHT22;4998;51.024;13.828;2023-08-07T11:00:51;21.60;91.30
9919;DHT22;4998;51.024;13.828;2023-08-07T11:03:26;21.60;91.70
9919;DHT22;4998;51.024;13.828;2023-08-07T11:05:54;21.60;91.80
9919;DHT22;4998;51.024;13.828;2023-08-07T11:08:24;21.60;91.60
9919;DHT22;4998;51.024;13.828;2023-08-07T11:10:51;21.60;91.50
9919;DHT22;4998;51.024;13.828;2023-08-07T11:13:19;21.60;91.70
9919;DHT22;4998;51.024;13.828;2023-08-07T11:15:46;21.60;92.10
9919;DHT22;4998;51.024;13.828;2023-08-07T11:18:15;21.60;92.40
9919;DHT22;4998;51.024;13.828;2023-08-07T11:20:43;21.60;92.70
9919;DHT22;4998;51.024;13.828;2023-08-07T11:23:10;21.70;92.70
9919;DHT22;4998;51.024;13.828;2023-08-07T11:25:37;21.80;92.60
9919;DHT22;4998;51.024;13.828;2023-08-07T11:28:05;21.90;92.80
9919;DHT22;4998;51.024;13.828;2023-08-07T11:30:34;22.00;92.50
9919;DHT22;4998;51.024;13.828;2023-08-07T11:33:02;22.10;91.80
9919;DHT22;4998;51.024;13.828;2023-08-07T11:35:32;22.20;91.40
9919;DHT22;4998;51.024;13.828;2023-08-07T11:37:59;22.20;90.60
9919;DHT22;4998;51.024;13.828;2023-08-07T11:40:26;22.30;90.20
9919;DHT22;4998;51.024;13.828;2023-08-07T11:42:53;22.20;89.40
9919;DHT22;4998;51.024;13.828;2023-08-07T11:45:20;22.30;89.30
9919;DHT22;4998;51.024;13.828;2023-08-07T11:47:47;22.20;89.10
9919;DHT22;4998;51.024;13.828;2023-08-07T11:50:14;22.20;89.20
9919;DHT22;4998;51.024;13.828;2023-08-07T11:52:43;22.10;89.90
9919;DHT22;4998;51.024;13.828;2023-08-07T11:55:13;22.00;89.90
9919;DHT22;4998;51.024;13.828;2023-08-07T11:57:40;22.00;90.20
9919;DHT22;4998;51.024;13.828;2023-08-07T12:00:09;21.90;90.50
9919;DHT22;4998;51.024;13.828;2023-08-07T12:02:42;21.80;90.10
9919;DHT22;4998;51.024;13.828;2023-08-07T12:05:09;21.70;90.50
9919;DHT22;4998;51.024;13.828;2023-08-07T12:07:38;21.60;90.90
9919;DHT22;4998;51.024;13.828;2023-08-07T12:10:09;21.50;91.20
9919;DHT22;4998;51.024;13.828;2023-08-07T12:12:36;21.40;91.00
9919;DHT22;4998;51.024;13.828;2023-08-07T12:15:06;21.40;91.20
9919;DHT22;4998;51.024;13.828;2023-08-07T12:17:33;21.30;91.50
9919;DHT22;4998;51.024;13.828;2023-08-07T12:20:02;21.30;91.50
9919;DHT22;4998;51.024;13.828;2023-08-07T12:22:29;21.20;92.10
9919;DHT22;4998;51.024;13.828;2023-08-07T12:24:56;21.20;92.70
9919;DHT22;4998;51.024;13.828;2023-08-07T12:27:25;21.20;93.30
9919;DHT22;4998;51.024;13.828;2023-08-07T12:29:52;21.20;93.70
9919;DHT22;4998;51.024;13.828;2023-08-07T12:32:19;21.30;93.60
9919;DHT22;4998;51.024;13.828;2023-08-07T12:34:46;21.30;93.30
9919;DHT22;4998;51.024;13.828;2023-08-07T12:37:15;21.40;93.10
9919;DHT22;4998;51.024;13.828;2023-08-07T12:39:42;21.40;93.00
9919;DHT22;4998;51.024;13.828;2023-08-07T12:42:09;21.50;92.90
9919;DHT22;4998;51.024;13.828;2023-08-07T12:44:38;21.50;92.20
9919;DHT22;4998;51.024;13.828;2023-08-07T12:47:05;21.60;91.50
9919;DHT22;4998;51.024;13.828;2023-08-07T12:49:32;21.60;91.80
9919;DHT22;4998;51.024;13.828;2023-08-07T12:51:59;21.60;91.50
9919;DHT22;4998;51.024;13.828;2023-08-07T12:54:26;21.60;91.60
9919;DHT22;4998;51.024;13.828;2023-08-07T12:56:53;21.60;91.90
9919;DHT22;4998;51.024;13.828;2023-08-07T12:59:21;21.60;91.70
9919;DHT22;4998;51.024;13.828;2023-08-07T13:01:49;21.70;91.70
9919;DHT22;4998;51.024;13.828;2023-08-07T13:04:18;21.70;91.60
9919;DHT22;4998;51.024;13.828;2023-08-07T13:06:46;21.80;91.60
9919;DHT22;4998;51.024;13.828;2023-08-07T13:09:15;21.80;91.80
9919;DHT22;4998;51.024;13.828;2023-08-07T13:11:42;21.90;91.40
9919;DHT22;4998;51.024;13.828;2023-08-07T13:14:09;21.90;91.30
9919;DHT22;4998;51.024;13.828;2023-08-07T13:16:36;21.90;91.30
9919;DHT22;4998;51.024;13.828;2023-08-07T13:19:04;22.00;91.30
9919;DHT22;4998;51.024;13.828;2023-08-07T13:21:31;21.90;91.10
9919;DHT22;4998;51.024;13.828;2023-08-07T13:23:58;21.90;91.20
9919;DHT22;4998;51.024;13.828;2023-08-07T13:26:25;21.90;91.10
9919;DHT22;4998;51.024;13.828;2023-08-07T13:28:52;21.90;91.30
9919;DHT22;4998;51.024;13.828;2023-08-07T13:31:19;21.90;91.10
9919;DHT22;4998;51.024;13.828;2023-08-07T13:33:46;21.90;91.20
9919;DHT22;4998;51.024;13.828;2023-08-07T13:36:14;21.90;91.20
9919;DHT22;4998;51.024;13.828;2023-08-07T13:38:41;22.00;91.50
9919;DHT22;4998;51.024;13.828;2023-08-07T13:41:08;22.10;91.30
9919;DHT22;4998;51.024;13.828;2023-08-07T13:43:37;22.10;91.30
9919;DHT22;4998;51.024;13.828;2023-08-07T13:46:04;22.20;91.10
9919;DHT22;4998;51.024;13.828;2023-08-07T13:48:31;22.30;90.70
9919;DHT22;4998;51.024;13.828;2023-08-07T13:50:59;22.40;90.70
9919;DHT22;4998;51.024;13.828;2023-08-07T13:53:31;22.50;90.50
9919;DHT22;4998;51.024;13.828;2023-08-07T13:55:58;22.60;90.30
9919;DHT22;4998;51.024;13.828;2023-08-07T13:58:25;22.60;89.20
9919;DHT22;4998;51.024;13.828;2023-08-07T14:00:52;22.60;88.50
9919;DHT22;4998;51.024;13.828;2023-08-07T14:03:19;22.60;87.40
9919;DHT22;4998;51.024;13.828;2023-08-07T14:05:46;22.60;87.30
9919;DHT22;4998;51.024;13.828;2023-08-07T14:08:14;22.50;87.50
9919;DHT22;4998;51.024;13.828;2023-08-07T14:10:42;22.40;88.00
9919;DHT22;4998;51.024;13.828;2023-08-07T14:13:09;22.40;88.90
9919;DHT22;4998;51.024;13.828;2023-08-07T14:15:37;22.30;88.90
9919;DHT22;4998;51.024;13.828;2023-08-07T14:18:04;22.20;89.20
9919;DHT22;4998;51.024;13.828;2023-08-07T14:20:31;22.10;90.00
9919;DHT22;4998;51.024;13.828;2023-08-07T14:22:58;22.00;90.30
9919;DHT22;4998;51.024;13.828;2023-08-07T14:25:25;21.80;90.20
9919;DHT22;4998;51.024;13.828;2023-08-07T14:27:54;21.70;90.40
9919;DHT22;4998;51.024;13.828;2023-08-07T14:30:21;21.50;90.50
9919;DHT22;4998;51.024;13.828;2023-08-07T14:32:48;21.30;90.50
9919;DHT22;4998;51.024;13.828;2023-08-07T14:35:16;21.20;90.70
9919;DHT22;4998;51.024;13.828;2023-08-07T14:37:43;21.00;90.80
9919;DHT22;4998;51.024;13.828;2023-08-07T14:40:10;20.80;91.10
9919;DHT22;4998;51.024;13.828;2023-08-07T14:42:38;20.70;91.70
9919;DHT22;4998;51.024;13.828;2023-08-07T14:45:07;20.60;92.20
9919;DHT22;4998;51.024;13.828;2023-08-07T14:47:34;20.50;92.80
9919;DHT22;4998;51.024;13.828;2023-08-07T14:50:01;20.40;93.00
9919;DHT22;4998;51.024;13.828;2023-08-07T14:52:28;20.40;93.60
9919;DHT22;4998;51.024;13.828;2023-08-07T14:54:55;20.40;93.90
9919;DHT22;4998;51.024;13.828;2023-08-07T14:57:23;20.50;94.20
9919;DHT22;4998;51.024;13.828;2023-08-07T14:59:50;20.50;94.60
9919;DHT22;4998;51.024;13.828;2023-08-07T15:02:18;20.50;94.70
9919;DHT22;4998;51.024;13.828;2023-08-07T15:04:45;20.60;95.20
9919;DHT22;4998;51.024;13.828;2023-08-07T15:07:12;20.70;95.20
9919;DHT22;4998;51.024;13.828;2023-08-07T15:09:39;20.80;95.40
9919;DHT22;4998;51.024;13.828;2023-08-07T15:12:07;20.90;95.60
9919;DHT22;4998;51.024;13.828;2023-08-07T15:14:34;21.00;95.60
9919;DHT22;4998;51.024;13.828;2023-08-07T15:17:02;21.10;95.60
9919;DHT22;4998;51.024;13.828;2023-08-07T15:19:30;21.20;95.20
9919;DHT22;4998;51.024;13.828;2023-08-07T15:21:57;21.30;94.70
9919;DHT22;4998;51.024;13.828;2023-08-07T15:24:24;21.30;93.70
9919;DHT22;4998;51.024;13.828;2023-08-07T15:26:51;21.30;93.50
9919;DHT22;4998;51.024;13.828;2023-08-07T15:29:18;21.30;93.40
9919;DHT22;4998;51.024;13.828;2023-08-07T15:31:45;21.20;93.50
9919;DHT22;4998;51.024;13.828;2023-08-07T15:34:13;21.10;93.30
9919;DHT22;4998;51.024;13.828;2023-08-07T15:36:41;21.00;93.10
9919;DHT22;4998;51.024;13.828;2023-08-07T15:39:09;20.90;93.30
9919;DHT22;4998;51.024;13.828;2023-08-07T15:41:36;20.80;93.20
9919;DHT22;4998;51.024;13.828;2023-08-07T15:44:04;20.80;93.60
9919;DHT22;4998;51.024;13.828;2023-08-07T15:46:32;20.70;93.90
9919;DHT22;4998;51.024;13.828;2023-08-07T15:48:59;20.70;94.20